createdAt,value
2022-08-09T00:00:05.996Z,75.90
2022-08-09T00:02:49.830Z,88.80
2022-08-09T00:06:16.302Z,90.10
2022-08-09T00:08:09.780Z,75.80
2022-08-09T00:10:39.026Z,90.00
2022-08-09T00:13:17.398Z,90.10
2022-08-09T00:15:59.066Z,76.70
2022-08-09T00:18:29.593Z,90.00
2022-08-09T00:20:56.602Z,90.40
2022-08-09T00:26:12.461Z,90.10
2022-08-09T00:28:41.497Z,90.00
2022-08-09T00:31:50.657Z,90.30
2022-08-09T00:44:11.607Z,90.20
2022-08-09T00:44:40.843Z,90.80
2022-08-09T00:49:42.353Z,90.30
2022-08-09T00:52:19.129Z,84.90
2022-08-09T00:54:48.466Z,90.50
2022-08-09T00:57:33.603Z,90.50
2022-08-09T01:00:21.391Z,91.00
2022-08-09T01:03:18.266Z,90.90
2022-08-09T01:05:59.504Z,89.30
2022-08-09T01:09:17.600Z,91.20
2022-08-09T01:11:53.085Z,91.40
2022-08-09T01:14:35.035Z,91.00
2022-08-09T01:17:11.520Z,91.50
2022-08-09T01:20:02.819Z,91.40
2022-08-09T01:22:58.131Z,91.20
2022-08-09T01:25:31.421Z,79.50
2022-08-09T01:28:06.931Z,91.70
2022-08-09T01:30:51.352Z,91.30
2022-08-09T01:33:23.711Z,91.80
2022-08-09T01:36:01.266Z,91.80
2022-08-09T01:38:31.239Z,90.40
2022-08-09T01:41:26.151Z,91.70
2022-08-09T01:43:58.752Z,91.90
2022-08-09T01:46:32.485Z,82.10
2022-08-09T01:49:10.138Z,91.40
2022-08-09T01:51:53.569Z,84.60
2022-08-09T01:54:33.258Z,91.60
2022-08-09T01:57:08.135Z,91.50
2022-08-09T01:59:51.110Z,80.90
2022-08-09T02:02:24.121Z,91.70
2022-08-09T02:05:05.285Z,92.10
2022-08-09T02:08:39.693Z,81.20
2022-08-09T02:10:32.714Z,92.30
2022-08-09T02:13:04.161Z,92.50
2022-08-09T02:15:49.328Z,92.40
2022-08-09T02:18:23.833Z,92.50
2022-08-09T02:20:55.996Z,92.70
2022-08-09T02:23:46.296Z,82.00
2022-08-09T02:26:27.009Z,82.20
2022-08-09T02:28:59.535Z,92.60
2022-08-09T02:31:35.537Z,92.90
2022-08-09T02:34:13.847Z,82.60
2022-08-09T02:37:02.420Z,82.70
2022-08-09T02:39:42.454Z,92.80
2022-08-09T02:42:17.811Z,86.70
2022-08-09T02:44:52.448Z,92.60
2022-08-09T02:47:22.174Z,92.60
2022-08-09T02:50:01.737Z,82.90
2022-08-09T02:52:40.697Z,92.80
2022-08-09T02:55:20.196Z,82.90
2022-08-09T02:58:00.385Z,93.10
2022-08-09T03:00:39.518Z,92.80
2022-08-09T03:03:37.314Z,92.70
2022-08-09T03:06:14.961Z,92.80
2022-08-09T03:08:44.237Z,93.00
2022-08-09T03:11:14.843Z,92.50
2022-08-09T03:14:02.020Z,93.30
2022-08-09T03:16:29.995Z,93.20
2022-08-09T03:18:56.985Z,88.10
2022-08-09T03:21:39.503Z,93.40
2022-08-09T03:24:06.728Z,90.20
2022-08-09T03:26:42.647Z,84.10
2022-08-09T03:29:22.768Z,84.10
2022-08-09T03:31:59.669Z,84.20
2022-08-09T03:34:27.987Z,93.40
2022-08-09T03:36:58.182Z,93.70
2022-08-09T03:39:37.500Z,93.50
2022-08-09T03:42:06.236Z,84.50
2022-08-09T03:44:33.921Z,91.90
2022-08-09T03:49:32.855Z,94.10
2022-08-09T03:52:04.267Z,93.60
2022-08-09T03:54:34.361Z,94.30
2022-08-09T03:57:18.546Z,85.40
2022-08-09T03:59:54.811Z,85.40
2022-08-09T04:02:30.513Z,85.50
2022-08-09T04:05:05.822Z,85.50
2022-08-09T04:07:53.071Z,94.20
2022-08-09T04:10:29.480Z,94.20
2022-08-09T04:13:01.068Z,94.00
2022-08-09T04:15:38.996Z,93.90
2022-08-09T04:18:16.766Z,91.70
2022-08-09T04:20:46.280Z,94.40
2022-08-09T04:25:49.618Z,85.00
2022-08-09T04:31:01.238Z,87.60
2022-08-09T04:33:52.591Z,94.60
2022-08-09T04:36:27.904Z,88.50
2022-08-09T04:38:56.497Z,94.40
2022-08-09T04:41:31.978Z,93.30
2022-08-09T04:46:56.814Z,94.20
2022-08-09T04:52:07.499Z,94.50
2022-08-09T04:54:36.583Z,91.20
2022-08-09T04:57:04.149Z,94.60
2022-08-09T04:59:31.375Z,84.90
2022-08-09T05:06:58.722Z,86.40
2022-08-09T05:12:12.496Z,94.20
2022-08-09T05:14:41.172Z,93.70
2022-08-09T05:17:15.199Z,94.00
2022-08-09T05:19:56.973Z,92.60
2022-08-09T05:22:36.315Z,94.20
2022-08-09T05:25:11.631Z,93.30
2022-08-09T05:30:17.708Z,91.00
2022-08-09T05:32:50.811Z,91.30
2022-08-09T05:35:18.062Z,94.10
2022-08-09T05:37:47.961Z,93.70
2022-08-09T05:40:18.344Z,93.60
2022-08-09T05:42:45.535Z,89.00
2022-08-09T05:45:14.276Z,94.00
2022-08-09T05:47:52.387Z,93.50
2022-08-09T05:50:43.924Z,93.50
2022-08-09T05:58:28.592Z,93.30
2022-08-09T06:03:22.345Z,89.40
2022-08-09T06:05:54.815Z,93.20
2022-08-09T06:08:31.360Z,93.70
2022-08-09T06:13:28.356Z,93.10
2022-08-09T06:16:05.344Z,93.40
2022-08-09T06:18:32.661Z,88.80
2022-08-09T06:21:00.520Z,89.70
2022-08-09T06:23:58.688Z,88.30
2022-08-09T06:26:21.226Z,95.30
2022-08-09T06:28:59.384Z,84.20
2022-08-09T06:31:31.495Z,92.90
2022-08-09T06:34:06.499Z,91.70
2022-08-09T06:36:34.463Z,88.80
2022-08-09T06:39:02.744Z,84.40
2022-08-09T06:42:01.184Z,80.50
2022-08-09T06:44:24.958Z,77.30
2022-08-09T06:46:55.218Z,74.60
2022-08-09T06:49:44.794Z,59.50
2022-08-09T06:57:11.180Z,67.10
2022-08-09T07:00:55.851Z,64.10
2022-08-09T07:02:29.187Z,61.60
2022-08-09T07:04:57.720Z,62.40
2022-08-09T07:07:58.805Z,59.40
2022-08-09T07:10:29.545Z,58.10
2022-08-09T07:12:58.263Z,57.80
2022-08-09T07:15:53.723Z,56.00
2022-08-09T07:18:14.360Z,49.80
2022-08-09T07:20:43.723Z,39.80
2022-08-09T07:23:18.670Z,51.00
2022-08-09T07:25:52.553Z,50.50
2022-08-09T07:28:30.949Z,40.30
2022-08-09T07:31:04.661Z,42.50
2022-08-09T07:33:52.221Z,46.50
2022-08-09T07:36:19.689Z,34.10
2022-08-09T07:38:54.985Z,44.00
2022-08-09T07:41:26.047Z,44.00
2022-08-09T07:46:23.469Z,41.90
2022-08-09T07:48:59.573Z,41.90
2022-08-09T07:52:03.181Z,40.60
2022-08-09T07:54:15.152Z,41.20
2022-08-09T07:56:49.373Z,41.10
2022-08-09T07:59:25.272Z,39.30
2022-08-09T08:02:00.214Z,39.10
2022-08-09T08:04:31.621Z,39.70
2022-08-09T08:07:15.065Z,39.00
2022-08-09T08:09:53.341Z,26.70
2022-08-09T08:12:28.148Z,38.10
2022-08-09T08:15:05.468Z,25.90
2022-08-09T08:17:52.217Z,36.60
2022-08-09T08:20:27.203Z,25.50
2022-08-09T08:22:58.647Z,25.10
2022-08-09T08:25:40.328Z,37.00
2022-08-09T08:28:14.261Z,24.60
2022-08-09T08:30:41.896Z,33.30
2022-08-09T08:33:11.752Z,23.70
2022-08-09T08:35:58.309Z,35.10
2022-08-09T08:38:28.003Z,23.60
2022-08-09T08:40:57.191Z,22.90
2022-08-09T08:43:27.107Z,22.10
2022-08-09T08:46:10.327Z,31.90
2022-08-09T08:48:52.045Z,22.30
2022-08-09T08:51:22.385Z,22.00
2022-08-09T08:54:03.455Z,29.80
2022-08-09T08:56:34.555Z,21.20
2022-08-09T08:59:18.680Z,20.80
2022-08-09T09:01:52.895Z,20.00
2022-08-09T09:04:27.666Z,19.40
2022-08-09T09:06:58.049Z,19.20
2022-08-09T09:09:58.079Z,19.50
2022-08-09T09:12:18.955Z,19.60
2022-08-09T09:14:50.325Z,28.40
2022-08-09T09:17:19.748Z,26.20
2022-08-09T09:19:47.786Z,18.50
2022-08-09T09:22:34.226Z,17.80
2022-08-09T09:26:00.551Z,18.10
2022-08-09T09:28:05.102Z,18.10
2022-08-09T09:30:43.685Z,18.00
2022-08-09T09:33:17.536Z,17.50
2022-08-09T09:36:01.564Z,24.40
2022-08-09T09:38:58.012Z,24.40
2022-08-09T09:41:32.630Z,16.60
2022-08-09T09:44:11.721Z,17.30
2022-08-09T09:46:46.047Z,26.00
2022-08-09T09:49:31.795Z,16.50
2022-08-09T09:52:35.800Z,16.30
2022-08-09T09:55:28.568Z,16.70
2022-08-09T09:58:18.840Z,16.40
2022-08-09T10:00:54.639Z,16.00
2022-08-09T10:03:42.879Z,16.10
2022-08-09T10:06:09.969Z,16.10
2022-08-09T10:08:43.301Z,16.20
2022-08-09T10:12:00.614Z,16.60
2022-08-09T10:14:33.691Z,16.40
2022-08-09T10:17:38.917Z,16.10
2022-08-09T10:19:59.319Z,16.30
2022-08-09T10:22:38.974Z,16.20
2022-08-09T10:25:12.419Z,16.00
2022-08-09T10:27:45.251Z,16.10
2022-08-09T10:33:29.902Z,15.80
2022-08-09T10:36:01.281Z,15.50
2022-08-09T10:38:55.524Z,15.30
2022-08-09T10:41:18.550Z,15.20
2022-08-09T10:43:58.686Z,14.90
2022-08-09T10:46:34.244Z,14.70
2022-08-09T10:49:19.779Z,14.60
2022-08-09T10:52:07.717Z,14.70
2022-08-09T10:54:34.970Z,14.70
2022-08-09T10:57:16.360Z,21.90
2022-08-09T10:59:55.648Z,14.70
2022-08-09T11:03:16.003Z,14.70
2022-08-09T11:05:29.695Z,14.40
2022-08-09T11:07:59.404Z,14.40
2022-08-09T11:10:53.322Z,14.10
2022-08-09T11:13:50.898Z,14.00
2022-08-09T11:16:37.195Z,14.00
2022-08-09T11:19:09.751Z,14.10
2022-08-09T11:22:04.923Z,13.90
2022-08-09T11:25:11.416Z,13.90
2022-08-09T11:28:05.433Z,13.60
2022-08-09T11:30:32.390Z,13.80
2022-08-09T11:33:19.102Z,13.40
2022-08-09T11:35:56.209Z,13.20
2022-08-09T11:38:33.090Z,13.10
2022-08-09T11:41:14.112Z,13.10
2022-08-09T11:43:47.178Z,12.90
2022-08-09T11:46:26.791Z,12.70
2022-08-09T11:48:59.936Z,12.60
2022-08-09T11:53:15.906Z,12.30
2022-08-09T11:54:27.824Z,12.40
2022-08-09T11:57:47.972Z,12.30
2022-08-09T12:00:27.690Z,12.20
2022-08-09T12:02:59.390Z,12.50
2022-08-09T12:05:39.623Z,12.20
2022-08-09T12:08:12.418Z,12.10
2022-08-09T12:10:48.643Z,12.10
2022-08-09T12:14:10.195Z,12.10
2022-08-09T12:16:37.418Z,11.80
2022-08-09T12:19:06.399Z,11.90
2022-08-09T12:21:50.417Z,11.90
2022-08-09T12:24:23.713Z,11.70
2022-08-09T12:29:15.303Z,17.00
2022-08-09T12:30:00.049Z,11.90
2022-08-09T12:32:31.533Z,11.80
2022-08-09T12:35:04.771Z,11.60
2022-08-09T12:37:50.278Z,11.70
2022-08-09T12:40:23.072Z,11.90
2022-08-09T12:42:52.279Z,12.10
2022-08-09T12:45:33.520Z,12.20
2022-08-09T12:48:10.759Z,12.10
2022-08-09T12:50:48.962Z,12.00
2022-08-09T12:53:41.183Z,12.30
2022-08-09T12:56:40.125Z,12.50
2022-08-09T12:59:12.083Z,17.90
2022-08-09T13:01:48.673Z,12.90
2022-08-09T13:04:37.040Z,12.50
2022-08-09T13:07:14.681Z,12.30
2022-08-09T13:09:48.198Z,12.10
2022-08-09T13:12:22.332Z,19.20
2022-08-09T13:14:53.641Z,13.10
2022-08-09T13:17:44.351Z,18.20
2022-08-09T13:20:14.005Z,20.10
2022-08-09T13:23:06.057Z,13.80
2022-08-09T13:25:53.031Z,14.20
2022-08-09T13:28:34.506Z,15.10
2022-08-09T13:32:15.195Z,15.90
2022-08-09T13:33:57.903Z,16.60
2022-08-09T13:36:41.179Z,17.40
2022-08-09T13:39:34.222Z,25.70
2022-08-09T13:42:11.913Z,18.30
2022-08-09T13:44:42.168Z,26.80
2022-08-09T13:47:29.189Z,18.80
2022-08-09T13:50:30.694Z,28.90
2022-08-09T13:52:58.536Z,20.30
2022-08-09T13:55:28.699Z,30.20
2022-08-09T13:57:58.542Z,30.80
2022-08-09T14:00:28.848Z,30.80
2022-08-09T14:03:04.574Z,32.80
2022-08-09T14:05:58.390Z,32.80
2022-08-09T14:08:27.340Z,32.60
2022-08-09T14:14:15.587Z,35.80
2022-08-09T14:16:15.142Z,34.90
2022-08-09T14:18:45.732Z,24.30
2022-08-09T14:21:22.364Z,36.40
2022-08-09T14:23:55.067Z,37.80
2022-08-09T14:26:33.517Z,39.60
2022-08-09T14:30:18.694Z,40.70
2022-08-09T14:32:10.824Z,41.20
2022-08-09T14:34:42.476Z,42.50
2022-08-09T14:37:09.623Z,41.80
2022-08-09T14:39:47.072Z,44.30
2022-08-09T14:42:28.764Z,44.10
2022-08-09T14:46:39.900Z,42.50
2022-08-09T14:47:57.046Z,29.30
2022-08-09T14:50:27.175Z,44.50
2022-08-09T14:52:53.995Z,33.90
2022-08-09T14:55:21.467Z,45.10
2022-08-09T14:57:49.283Z,42.90
2022-08-09T15:00:17.018Z,48.20
2022-08-09T15:02:47.116Z,48.70
2022-08-09T15:05:16.898Z,47.10
2022-08-09T15:07:45.522Z,49.30
2022-08-09T15:10:21.720Z,47.70
2022-08-09T15:12:52.595Z,48.30
2022-08-09T15:15:20.210Z,48.50
2022-08-09T15:17:53.029Z,49.10
2022-08-09T15:21:58.873Z,40.10
2022-08-09T15:24:02.152Z,50.90
2022-08-09T15:25:58.787Z,51.10
2022-08-09T15:28:27.677Z,37.90
2022-08-09T15:31:00.782Z,37.90
2022-08-09T15:34:33.610Z,52.80
2022-08-09T15:41:23.316Z,42.20
2022-08-09T15:44:00.544Z,54.10
2022-08-09T15:46:34.065Z,42.90
2022-08-09T15:49:21.657Z,53.70
2022-08-09T15:52:04.904Z,54.50
2022-08-09T15:54:46.219Z,55.10
2022-08-09T15:57:35.680Z,54.80
2022-08-09T16:00:13.877Z,55.90
2022-08-09T16:02:53.365Z,55.20
2022-08-09T16:05:22.969Z,56.30
2022-08-09T16:07:50.951Z,45.80
2022-08-09T16:10:55.293Z,56.60
2022-08-09T16:13:18.464Z,56.30
2022-08-09T16:16:11.730Z,43.60
2022-08-09T16:18:34.883Z,43.30
2022-08-09T16:21:03.916Z,56.00
2022-08-09T16:23:33.076Z,58.30
2022-08-09T16:26:02.944Z,57.50
2022-08-09T16:28:29.854Z,56.70
2022-08-09T16:30:59.105Z,57.20
2022-08-09T16:33:26.478Z,44.30
2022-08-09T16:35:58.605Z,59.30
2022-08-09T16:38:31.300Z,57.40
2022-08-09T16:40:59.259Z,59.30
2022-08-09T16:43:31.366Z,59.90
2022-08-09T16:45:58.176Z,58.50
2022-08-09T16:48:40.669Z,60.20
2022-08-09T16:51:14.408Z,56.30
2022-08-09T16:54:16.415Z,42.90
2022-08-09T16:56:33.468Z,58.90
2022-08-09T16:59:10.256Z,45.40
2022-08-09T17:01:37.427Z,59.30
2022-08-09T17:04:06.775Z,59.80
2022-08-09T17:12:08.878Z,61.50
2022-08-09T17:14:35.789Z,59.90
2022-08-09T17:17:13.021Z,60.10
2022-08-09T17:22:50.644Z,60.60
2022-08-09T17:25:19.998Z,61.50
2022-08-09T17:30:28.168Z,61.40
2022-08-09T17:33:00.709Z,61.50
2022-08-09T17:35:34.519Z,49.20
2022-08-09T17:38:11.244Z,61.80
2022-08-09T17:46:06.144Z,49.00
2022-08-09T17:48:51.924Z,62.40
2022-08-09T17:51:19.935Z,62.80
2022-08-09T17:53:52.217Z,63.10
2022-08-09T17:56:22.124Z,49.70
2022-08-09T17:58:58.869Z,64.40
2022-08-09T18:02:08.079Z,60.90
2022-08-09T18:04:13.684Z,65.40
2022-08-09T18:06:49.609Z,55.50
2022-08-09T18:09:21.596Z,65.60
2022-08-09T18:12:14.443Z,65.20
2022-08-09T18:14:37.019Z,56.70
2022-08-09T18:17:19.013Z,66.10
2022-08-09T18:21:00.836Z,63.20
2022-08-09T18:22:51.509Z,65.50
2022-08-09T18:33:23.070Z,66.80
2022-08-09T18:48:46.791Z,57.80
2022-08-09T18:51:15.320Z,66.70
2022-08-09T18:53:59.723Z,66.90
2022-08-09T18:56:30.728Z,68.50
2022-08-09T18:59:01.895Z,66.10
2022-08-09T19:06:38.534Z,69.20
2022-08-09T19:09:08.969Z,60.00
2022-08-09T19:14:15.999Z,69.20
2022-08-09T19:19:25.108Z,68.50
2022-08-09T19:22:06.474Z,63.50
2022-08-09T19:24:39.834Z,68.60
2022-08-09T19:32:36.942Z,57.90
2022-08-09T19:35:04.766Z,70.70
2022-08-09T19:37:40.882Z,55.60
2022-08-09T19:42:48.999Z,56.60
2022-08-09T19:47:44.616Z,70.10
2022-08-09T19:50:49.157Z,70.10
2022-08-09T19:56:03.186Z,65.90
2022-08-09T20:00:59.950Z,72.30
2022-08-09T20:04:11.169Z,71.10
2022-08-09T20:06:23.428Z,71.90
2022-08-09T20:11:33.927Z,71.70
2022-08-09T20:14:15.355Z,58.90
2022-08-09T20:24:36.953Z,72.40
2022-08-09T20:27:08.316Z,63.40
2022-08-09T20:29:37.245Z,72.80
2022-08-09T20:32:29.261Z,59.70
2022-08-09T20:37:22.577Z,63.90
2022-08-09T20:42:37.814Z,72.90
2022-08-09T20:45:57.427Z,61.20
2022-08-09T20:47:54.213Z,73.00
2022-08-09T20:53:22.698Z,73.30
2022-08-09T20:56:02.096Z,69.10
2022-08-09T20:58:32.254Z,74.50
2022-08-09T21:01:33.438Z,74.80
2022-08-09T21:04:07.964Z,67.90
2022-08-09T21:06:37.092Z,74.90
2022-08-09T21:14:30.772Z,74.80
2022-08-09T21:16:57.904Z,75.20
2022-08-09T21:20:17.184Z,67.20
2022-08-09T21:22:35.867Z,70.00
2022-08-09T21:25:21.296Z,76.20
2022-08-09T21:32:50.367Z,75.50
2022-08-09T21:35:17.804Z,62.20
2022-08-09T21:37:56.880Z,69.30
2022-08-09T21:43:06.049Z,72.20
2022-08-09T21:45:38.774Z,72.20
2022-08-09T21:48:07.171Z,76.90
2022-08-09T21:53:23.939Z,76.70
2022-08-09T21:55:54.884Z,76.30
2022-08-09T21:58:30.894Z,78.10
2022-08-09T22:00:58.469Z,71.30
2022-08-09T22:11:50.437Z,77.90
2022-08-09T22:16:11.107Z,78.20
2022-08-09T22:18:52.287Z,77.90
2022-08-09T22:21:45.258Z,65.30
2022-08-09T22:24:17.321Z,78.50
2022-08-09T22:26:51.503Z,76.20
2022-08-09T22:29:19.024Z,68.30
2022-08-09T22:31:56.729Z,78.60
2022-08-09T22:34:25.473Z,80.10
2022-08-09T22:36:54.250Z,74.50
2022-08-09T22:39:57.985Z,80.10
2022-08-09T22:42:21.364Z,79.10
2022-08-09T22:48:05.001Z,65.80
2022-08-09T22:48:11.471Z,80.60
2022-08-09T22:50:24.184Z,74.10
2022-08-09T22:52:57.686Z,79.50
2022-08-09T22:55:39.197Z,80.60
2022-08-09T22:58:20.149Z,77.60
2022-08-09T23:01:00.255Z,67.00
2022-08-09T23:03:31.295Z,78.70
2022-08-09T23:08:44.245Z,66.70
2022-08-09T23:11:15.555Z,67.40
2022-08-09T23:13:46.312Z,67.50
2022-08-09T23:16:14.822Z,81.20
2022-08-09T23:18:42.711Z,76.90
2022-08-09T23:21:10.093Z,80.50
2022-08-09T23:26:05.049Z,80.50
2022-08-09T23:28:32.124Z,67.20
2022-08-09T23:30:59.011Z,76.70
2022-08-09T23:33:26.733Z,78.40
2022-08-09T23:38:35.658Z,82.10
2022-08-09T23:41:02.815Z,81.20
2022-08-09T23:43:29.727Z,74.20
2022-08-09T23:48:26.317Z,77.70
2022-08-09T23:50:53.513Z,72.40
2022-08-09T23:55:54.477Z,67.60
2022-08-09T23:58:24.348Z,83.60
